Time;durP1;ratioP1;P1;durP2;ratioP2;P2;SDS_P1;SDS_P2;PMS_P1;PMS_P2;Temp;Humidity;BMP_temperature;BMP_pressure;BME280_temperature;BME280_humidity;BME280_pressure;Samples;Min_cycle;Max_cycle;Signal;HPM_P1;HPM_P2
2024/04/13 00:01:35;;;;;;;8.90;5.60;;;;;;;12.07;100.00;101224.91;179603;1258;46123;-70
2024/04/13 00:05:38;;;;;;;6.50;4.70;;;;;;;11.90;100.00;101225.22;179716;1257;45984;-70
2024/04/13 00:09:46;;;;;;;10.30;5.70;;;;;;;11.75;100.00;101222.75;180045;1257;45102;-70
2024/04/13 00:13:49;;;;;;;8.40;6.40;;;;;;;11.68;100.00;101222.91;179972;1259;58401;-70
2024/04/13 00:17:54;;;;;;;9.10;5.50;;;;;;;11.59;100.00;101224.95;179897;1258;43732;-70
2024/04/13 00:22:00;;;;;;;6.70;6.00;;;;;;;11.60;100.00;101219.92;179844;1258;46053;-71
2024/04/13 00:26:04;;;;;;;9.40;6.30;;;;;;;11.62;100.00;101222.06;179863;1259;45730;-70
2024/04/13 00:30:09;;;;;;;7.40;5.80;;;;;;;11.66;100.00;101217.34;179718;1260;44961;-70
2024/04/13 00:34:12;;;;;;;6.60;4.90;;;;;;;11.70;100.00;101212.96;179694;1263;59352;-70
2024/04/13 00:38:16;;;;;;;7.00;5.00;;;;;;;11.78;100.00;101218.45;179868;1262;46749;-70
2024/04/13 00:43:10;;;;;;;6.90;5.60;;;;;;;11.88;100.00;101219.30;179885;1259;46029;-70
2024/04/13 00:47:14;;;;;;;7.00;4.90;;;;;;;12.02;100.00;101219.96;179901;1259;45860;-70
2024/04/13 00:51:18;;;;;;;7.30;4.80;;;;;;;12.12;100.00;101222.22;179795;1260;46123;-70
2024/04/13 00:55:21;;;;;;;9.50;5.60;;;;;;;12.24;100.00;101221.72;179745;1259;57738;-69
2024/04/13 00:59:25;;;;;;;9.10;5.90;;;;;;;12.38;100.00;101218.02;179897;1259;43854;-69
2024/04/13 01:03:29;;;;;;;7.30;5.10;;;;;;;12.53;100.00;101216.23;179918;1259;46015;-70
2024/04/13 01:07:33;;;;;;;7.10;4.20;;;;;;;12.69;100.00;101215.36;179909;1259;43518;-70
2024/04/13 01:11:38;;;;;;;7.00;4.50;;;;;;;12.83;100.00;101215.55;179679;1259;46179;-70
2024/04/13 01:15:42;;;;;;;8.20;5.20;;;;;;;12.95;100.00;101217.35;179621;1259;58418;-69
2024/04/13 01:19:46;;;;;;;8.40;5.00;;;;;;;13.02;100.00;101217.50;179786;1259;46083;-68
2024/04/13 01:24:05;;;;;;;6.10;3.80;;;;;;;13.08;100.00;101214.18;179889;1260;43618;-70
2024/04/13 01:28:10;;;;;;;7.50;5.00;;;;;;;13.19;100.00;101209.83;180100;1259;44320;-70
2024/04/13 01:32:13;;;;;;;6.30;5.10;;;;;;;13.28;100.00;101211.41;180200;1259;45015;-69
2024/04/13 01:36:16;;;;;;;5.80;4.50;;;;;;;13.37;100.00;101212.34;180135;1259;60923;-70
2024/04/13 01:40:20;;;;;;;15.70;4.30;;;;;;;13.40;100.00;101209.92;180035;1258;44158;-70
2024/04/13 01:44:23;;;;;;;7.60;4.30;;;;;;;13.37;100.00;101213.53;180241;1259;45862;-70
2024/04/13 01:48:52;;;;;;;5.80;3.70;;;;;;;13.34;100.00;101212.77;180292;1259;43617;-70
2024/04/13 01:52:56;;;;;;;6.00;4.50;;;;;;;13.28;100.00;101215.72;180364;1260;46618;-69
2024/04/13 01:56:59;;;;;;;6.30;4.70;;;;;;;13.22;100.00;101218.98;180165;1259;58931;-70
2024/04/13 02:01:04;;;;;;;6.10;4.80;;;;;;;13.15;100.00;101218.49;180099;1259;43616;-71
2024/04/13 02:05:09;;;;;;;5.50;4.00;;;;;;;13.08;100.00;101219.05;180254;1258;43512;-70
2024/04/13 02:09:13;;;;;;;10.20;4.60;;;;;;;13.03;100.00;101218.14;180074;1259;45905;-70
2024/04/13 02:13:17;;;;;;;10.60;4.80;;;;;;;13.00;100.00;101222.08;180191;1260;46592;-69
2024/04/13 02:17:31;;;;;;;6.40;4.40;;;;;;;13.02;100.00;101223.07;180165;1259;58414;-70
2024/04/13 02:21:35;;;;;;;6.60;4.80;;;;;;;13.04;100.00;101218.58;180314;1259;43614;-69
2024/04/13 02:25:46;;;;;;;4.80;3.90;;;;;;;13.01;100.00;101216.85;180197;1259;43572;-70
2024/04/13 02:29:50;;;;;;;7.90;4.90;;;;;;;12.99;100.00;101220.77;180260;1260;45012;-70
2024/04/13 02:33:53;;;;;;;6.50;4.90;;;;;;;12.96;100.00;101207.41;179942;1259;44593;-70
2024/04/13 02:37:57;;;;;;;6.50;4.60;;;;;;;12.93;100.00;101208.59;179927;1259;59835;-70
2024/04/13 02:42:00;;;;;;;5.70;4.30;;;;;;;12.87;100.00;101204.90;179857;1262;45909;-71
2024/04/13 02:46:04;;;;;;;12.10;4.90;;;;;;;12.84;100.00;101200.19;179856;1263;43667;-70
2024/04/13 02:50:08;;;;;;;7.80;4.50;;;;;;;12.81;100.00;101205.05;179973;1263;46086;-71
2024/04/13 02:54:11;;;;;;;8.20;5.10;;;;;;;12.80;100.00;101211.52;180188;1260;44679;-71
2024/04/13 02:58:14;;;;;;;6.30;5.00;;;;;;;12.74;100.00;101212.51;179944;1260;59295;-71
2024/04/13 03:02:19;;;;;;;7.70;5.10;;;;;;;12.71;100.00;101209.21;179671;1259;46157;-71
2024/04/13 03:06:23;;;;;;;8.40;5.10;;;;;;;12.70;100.00;101209.60;179876;1259;44602;-70
2024/04/13 03:10:26;;;;;;;8.50;5.00;;;;;;;12.71;100.00;101207.25;180052;1260;46211;-71
2024/04/13 03:14:31;;;;;;;6.90;4.60;;;;;;;12.67;100.00;101208.06;179987;1261;44320;-70
2024/04/13 03:19:00;;;;;;;5.00;3.70;;;;;;;12.65;100.00;101209.29;179888;1262;57853;-71
2024/04/13 03:23:30;;;;;;;7.80;4.80;;;;;;;12.65;100.00;101213.71;179914;1259;45027;-71
2024/04/13 03:27:34;;;;;;;9.70;5.80;;;;;;;12.63;100.00;101217.46;179757;1260;45333;-71
2024/04/13 03:31:41;;;;;;;5.00;4.50;;;;;;;12.59;100.00;101213.86;179834;1260;43729;-71
2024/04/13 03:35:46;;;;;;;4.20;3.70;;;;;;;12.48;100.00;101209.33;179736;1260;46111;-71
2024/04/13 03:39:51;;;;;;;3.90;3.50;;;;;;;12.41;100.00;101208.74;179746;1259;58459;-71
2024/04/13 03:43:55;;;;;;;4.80;4.40;;;;;;;12.32;100.00;101208.32;179974;1259;44559;-71
2024/04/13 03:47:58;;;;;;;10.10;4.90;;;;;;;12.32;100.00;101212.45;179872;1259;43541;-72
2024/04/13 03:52:28;;;;;;;9.20;5.00;;;;;;;12.32;100.00;101212.79;179950;1259;46100;-71
2024/04/13 03:56:32;;;;;;;5.70;4.20;;;;;;;12.31;100.00;101206.65;179840;1259;44616;-70
2024/04/13 04:00:36;;;;;;;13.60;4.90;;;;;;;12.21;100.00;101202.91;179971;1260;58720;-71
2024/04/13 04:04:39;;;;;;;6.10;4.30;;;;;;;12.17;100.00;101208.44;180021;1259;43548;-71
2024/04/13 04:08:43;;;;;;;6.80;4.60;;;;;;;12.18;100.00;101210.12;179977;1259;43643;-71
2024/04/13 04:12:47;;;;;;;5.40;4.10;;;;;;;12.24;100.00;101210.36;179902;1260;46021;-71
2024/04/13 04:16:50;;;;;;;9.20;4.70;;;;;;;12.28;100.00;101203.45;179977;1259;43623;-70
2024/04/13 04:20:53;;;;;;;8.70;4.40;;;;;;;12.34;100.00;101203.80;179944;1260;59402;-71
2024/04/13 04:24:57;;;;;;;8.00;4.80;;;;;;;12.37;100.00;101201.23;179893;1257;45425;-71
2024/04/13 04:28:59;;;;;;;5.30;4.10;;;;;;;12.39;100.00;101203.06;179917;1259;45968;-71
2024/04/13 04:33:03;;;;;;;7.50;5.10;;;;;;;12.39;100.00;101205.86;179941;1259;44957;-71
2024/04/13 04:37:06;;;;;;;8.20;5.00;;;;;;;12.29;100.00;101205.03;179981;1258;45865;-71
2024/04/13 04:41:09;;;;;;;7.00;4.80;;;;;;;12.14;100.00;101197.92;179798;1258;58484;-72
2024/04/13 04:45:13;;;;;;;7.40;4.00;;;;;;;12.03;100.00;101199.05;179620;1259;43569;-71
2024/04/13 04:49:16;;;;;;;8.30;5.10;;;;;;;11.92;100.00;101201.80;179802;1258;44803;-72
2024/04/13 04:53:20;;;;;;;8.70;4.90;;;;;;;11.93;100.00;101204.09;180070;1260;44895;-72
2024/04/13 04:57:23;;;;;;;5.00;4.50;;;;;;;12.09;100.00;101203.63;179996;1259;43508;-71
2024/04/13 05:01:26;;;;;;;5.40;4.50;;;;;;;12.41;100.00;101201.61;179953;1259;59930;-70
2024/04/13 05:05:42;;;;;;;7.10;4.60;;;;;;;12.84;100.00;101201.04;180030;1258;45011;-71
2024/04/13 05:09:45;;;;;;;5.20;3.90;;;;;;;13.25;100.00;101197.39;179831;1259;43876;-71
2024/04/13 05:13:49;;;;;;;7.40;4.40;;;;;;;13.59;100.00;101202.41;180081;1258;45043;-71
2024/04/13 05:17:52;;;;;;;5.50;4.30;;;;;;;13.86;100.00;101205.05;180097;1259;44531;-71
2024/04/13 05:21:56;;;;;;;4.40;3.80;;;;;;;14.09;100.00;101203.19;180092;1262;58714;-70
2024/04/13 05:25:59;;;;;;;9.40;4.90;;;;;;;14.38;100.00;101210.97;180183;1259;44847;-70
2024/04/13 05:30:06;;;;;;;5.80;3.70;;;;;;;14.87;100.00;101215.52;180238;1260;45942;-71
2024/04/13 05:34:09;;;;;;;6.20;4.30;;;;;;;15.34;100.00;101220.06;180160;1258;44099;-71
2024/04/13 05:38:24;;;;;;;4.70;4.10;;;;;;;15.47;100.00;101218.56;180173;1260;45223;-70
2024/04/13 05:42:28;;;;;;;6.60;3.60;;;;;;;15.35;100.00;101214.62;180300;1259;58580;-70
2024/04/13 05:46:31;;;;;;;5.90;3.90;;;;;;;15.30;100.00;101217.38;180130;1260;45956;-71
2024/04/13 05:50:36;;;;;;;4.30;3.90;;;;;;;15.45;100.00;101215.20;180251;1260;46023;-70
2024/04/13 05:54:39;;;;;;;4.00;3.60;;;;;;;15.69;100.00;101212.40;180132;1261;46146;-70
2024/04/13 05:58:42;;;;;;;5.00;4.40;;;;;;;16.26;100.00;101214.15;180265;1262;45976;-70
2024/04/13 06:02:45;;;;;;;6.30;3.20;;;;;;;16.80;100.00;101217.59;180475;1259;58994;-70
2024/04/13 06:06:51;;;;;;;6.30;3.50;;;;;;;17.18;100.00;101217.73;180705;1257;45984;-69
2024/04/13 06:10:55;;;;;;;4.90;3.30;;;;;;;17.52;100.00;101216.10;180496;1258;43752;-70
2024/04/13 06:15:01;;;;;;;8.90;4.50;;;;;;;17.58;100.00;101220.29;180490;1260;44880;-70
2024/04/13 06:19:05;;;;;;;6.10;3.80;;;;;;;17.56;100.00;101218.90;180521;1259;43555;-69
2024/04/13 06:23:09;;;;;;;6.00;3.90;;;;;;;17.79;100.00;101224.39;180580;1258;57435;-70
2024/04/13 06:27:12;;;;;;;5.70;5.00;;;;;;;18.01;99.31;101219.03;180683;1257;44646;-69
2024/04/13 06:31:16;;;;;;;4.60;3.90;;;;;;;18.22;99.17;101222.42;180695;1258;43912;-70
2024/04/13 06:35:20;;;;;;;9.30;4.80;;;;;;;18.19;98.95;101218.59;180456;1259;44831;-69
2024/04/13 06:39:23;;;;;;;5.80;4.20;;;;;;;18.21;99.95;101222.52;180487;1260;43627;-69
2024/04/13 06:43:28;;;;;;;6.70;4.10;;;;;;;18.25;100.00;101216.38;180459;1260;58383;-69
2024/04/13 06:47:31;;;;;;;38.90;9.90;;;;;;;18.31;99.26;101208.23;180538;1260;43684;-70
2024/04/13 06:51:37;;;;;;;6.20;4.00;;;;;;;18.33;99.57;101213.27;180728;1260;43947;-69
2024/04/13 06:56:05;;;;;;;5.90;5.20;;;;;;;18.34;99.94;101220.31;180550;1261;44660;-69
2024/04/13 07:00:09;;;;;;;9.70;4.90;;;;;;;18.30;99.69;101217.84;180478;1260;43917;-69
2024/04/13 07:04:12;;;;;;;6.50;4.20;;;;;;;18.27;100.00;101216.88;180393;1259;58862;-69
2024/04/13 07:08:15;;;;;;;10.20;5.10;;;;;;;18.19;99.82;101213.85;180564;1260;44764;-69
2024/04/13 07:12:18;;;;;;;12.70;6.20;;;;;;;18.11;99.99;101214.67;180467;1259;43545;-69
2024/04/13 07:16:23;;;;;;;9.40;5.70;;;;;;;18.12;100.00;101210.48;180389;1261;45879;-69
2024/04/13 07:20:26;;;;;;;5.20;3.80;;;;;;;18.06;100.00;101206.55;180418;1259;44492;-69
2024/04/13 07:24:30;;;;;;;8.60;4.40;;;;;;;18.03;100.00;101208.30;180352;1260;58413;-69
2024/04/13 07:28:33;;;;;;;5.30;3.70;;;;;;;18.23;99.62;101201.25;180549;1260;43713;-69
2024/04/13 07:32:36;;;;;;;4.90;3.70;;;;;;;18.36;99.52;101205.19;180531;1260;45925;-69
2024/04/13 07:36:39;;;;;;;6.90;3.70;;;;;;;18.50;99.11;101200.24;180412;1259;43709;-69
2024/04/13 07:40:45;;;;;;;7.50;4.60;;;;;;;18.53;98.35;101200.80;180539;1259;44393;-69
2024/04/13 07:44:49;;;;;;;13.30;5.50;;;;;;;18.61;97.92;101192.52;180501;1258;58560;-69
2024/04/13 07:48:53;;;;;;;8.00;5.80;;;;;;;18.61;97.85;101194.81;180361;1262;43629;-69
2024/04/13 07:52:57;;;;;;;5.60;4.80;;;;;;;18.68;98.62;101201.63;180454;1261;43827;-71
2024/04/13 07:57:00;;;;;;;8.10;4.80;;;;;;;18.73;99.19;101201.83;180482;1260;43884;-70
2024/04/13 08:01:03;;;;;;;8.70;5.40;;;;;;;18.89;97.07;101193.63;180589;1259;43907;-69
2024/04/13 08:05:07;;;;;;;6.30;4.80;;;;;;;18.94;95.41;101200.27;180523;1259;58521;-71
2024/04/13 08:09:11;;;;;;;10.60;5.60;;;;;;;18.84;93.92;101196.80;180573;1260;43556;-69
2024/04/13 08:13:15;;;;;;;11.80;5.70;;;;;;;18.69;93.87;101203.33;180495;1259;46058;-69
2024/04/13 08:17:21;;;;;;;8.90;5.10;;;;;;;18.87;93.78;101202.41;180512;1259;45829;-69
2024/04/13 08:21:51;;;;;;;5.10;3.70;;;;;;;19.12;93.47;101216.61;180554;1260;43720;-69
2024/04/13 08:26:06;;;;;;;6.30;4.30;;;;;;;19.03;91.97;101219.30;180290;1260;266803;-69
2024/04/13 08:30:24;;;;;;;7.20;5.10;;;;;;;18.84;96.45;101217.48;180487;1260;43585;-69
2024/04/13 08:34:27;;;;;;;12.80;5.40;;;;;;;18.88;95.96;101213.09;180473;1261;45964;-69
2024/04/13 08:38:32;;;;;;;11.30;4.80;;;;;;;19.01;94.83;101199.58;180467;1260;43538;-69
2024/04/13 08:42:40;;;;;;;6.80;4.70;;;;;;;19.04;91.79;101200.52;180488;1260;46028;-69
2024/04/13 08:46:44;;;;;;;10.40;4.60;;;;;;;19.06;94.40;101199.75;180617;1259;59302;-69
2024/04/13 08:50:49;;;;;;;10.20;6.10;;;;;;;18.88;95.38;101191.13;180557;1259;43712;-69
2024/04/13 08:54:55;;;;;;;6.90;4.10;;;;;;;19.11;94.67;101201.43;180553;1259;44392;-69
2024/04/13 08:59:04;;;;;;;4.70;4.20;;;;;;;19.36;95.95;101195.39;180514;1259;43946;-69
2024/04/13 09:03:11;;;;;;;9.40;5.00;;;;;;;19.59;92.96;101162.23;180630;1259;43885;-69
2024/04/13 09:07:15;;;;;;;11.90;5.60;;;;;;;19.62;88.51;101159.45;180533;1260;58462;-70
2024/04/13 09:11:22;;;;;;;5.20;4.00;;;;;;;19.56;91.05;101160.02;180588;1260;46086;-69
2024/04/13 09:15:27;;;;;;;5.80;4.40;;;;;;;19.57;90.61;101165.15;180616;1259;43550;-69
2024/04/13 09:19:32;;;;;;;5.40;3.20;;;;;;;19.68;90.47;101155.34;180586;1259;46066;-69
2024/04/13 09:23:38;;;;;;;11.40;3.80;;;;;;;19.94;89.92;101167.20;180529;1260;45940;-70
2024/04/13 09:27:41;;;;;;;4.80;3.40;;;;;;;20.21;88.88;101160.16;180586;1259;58920;-70
2024/04/13 09:31:45;;;;;;;9.90;4.70;;;;;;;20.53;88.78;101158.10;180621;1259;43581;-69
2024/04/13 09:35:58;;;;;;;8.00;4.60;;;;;;;20.59;87.13;101157.75;180638;1259;43521;-70
2024/04/13 09:40:06;;;;;;;11.50;3.30;;;;;;;20.58;84.72;101161.70;180630;1260;45905;-70
2024/04/13 09:44:10;;;;;;;6.80;3.80;;;;;;;20.18;82.49;101156.76;180621;1259;45972;-70
2024/04/13 09:48:13;;;;;;;5.90;4.00;;;;;;;20.03;83.19;101159.55;180518;1260;58746;-70
2024/04/13 09:52:16;;;;;;;7.20;4.80;;;;;;;19.88;85.16;101152.69;180402;1260;45936;-70
2024/04/13 09:56:25;;;;;;;6.90;4.20;;;;;;;19.86;88.31;101147.66;180239;1261;43987;-70
2024/04/13 10:00:30;;;;;;;5.60;4.00;;;;;;;19.83;85.55;101150.34;180258;1259;45100;-70
2024/04/13 10:04:34;;;;;;;43.50;9.60;;;;;;;19.79;87.65;101144.80;180462;1259;43805;-70
2024/04/13 10:08:40;;;;;;;11.00;5.70;;;;;;;20.00;87.81;101137.91;180539;1260;58147;-71
2024/04/13 10:12:44;;;;;;;7.70;4.40;;;;;;;20.30;86.78;101126.57;180677;1260;43660;-70
2024/04/13 10:16:49;;;;;;;8.50;4.00;;;;;;;20.30;84.34;101127.83;180502;1259;43588;-70
2024/04/13 10:21:05;;;;;;;8.30;4.90;;;;;;;20.25;83.56;101127.48;180452;1260;43842;-70
2024/04/13 10:25:13;;;;;;;7.10;4.80;;;;;;;20.40;84.49;101118.97;180546;1259;43664;-70
2024/04/13 10:29:41;;;;;;;7.90;4.20;;;;;;;20.42;81.36;101118.08;180666;1253;57214;-70
2024/04/13 10:53:13;;;;;;;8.90;5.90;;;;;;;20.87;78.42;101081.27;180768;1259;93335;-69
2024/04/13 10:57:43;;;;;;;15.10;6.30;;;;;;;21.01;78.33;101073.83;152268;1262;90555;-69
2024/04/13 11:32:23;;;;;;;6.90;3.80;;;;;;;21.18;80.90;101065.30;180343;1262;45785;-70
2024/04/13 11:37:02;;;;;;;6.30;2.90;;;;;;;21.36;76.84;101054.71;180254;1262;44953;-71
2024/04/13 11:41:10;;;;;;;3.00;1.80;;;;;;;21.35;75.41;101051.91;180134;1262;59238;-70
2024/04/13 11:45:14;;;;;;;5.50;3.70;;;;;;;21.20;76.46;101049.56;180150;1262;44642;-70
2024/04/13 11:49:27;;;;;;;4.30;3.20;;;;;;;21.22;76.52;101036.98;180154;1262;43563;-69
2024/04/13 11:53:37;;;;;;;4.50;2.60;;;;;;;21.38;76.88;101023.52;180156;1262;43643;-70
2024/04/13 11:57:46;;;;;;;5.70;3.00;;;;;;;21.40;75.07;101015.28;179976;1264;45252;-70
2024/04/13 12:01:51;;;;;;;5.70;3.20;;;;;;;21.54;75.54;101006.65;180363;1262;59075;-70
2024/04/13 12:05:55;;;;;;;3.60;3.00;;;;;;;21.45;74.07;101011.13;180107;1263;44502;-70
2024/04/13 12:10:06;;;;;;;2.70;2.50;;;;;;;21.41;76.91;101005.80;180229;1262;44939;-70
2024/04/13 12:14:14;;;;;;;4.10;3.60;;;;;;;21.50;77.23;101005.09;180155;1264;43778;-70
2024/04/13 12:18:19;;;;;;;3.20;2.90;;;;;;;21.56;76.92;101000.15;180181;1262;43560;-70
2024/04/13 12:22:24;;;;;;;3.10;2.80;;;;;;;21.70;76.91;100998.17;179984;1262;58594;-70
2024/04/13 12:26:27;;;;;;;12.00;4.40;;;;;;;21.86;74.63;100999.11;180150;1263;43599;-70
2024/04/13 12:30:30;;;;;;;4.30;3.50;;;;;;;21.77;75.88;100992.21;180385;1264;43753;-68
2024/04/13 12:34:34;;;;;;;7.30;3.30;;;;;;;21.74;76.08;100986.70;180421;1263;45966;-69
2024/04/13 12:38:37;;;;;;;12.90;4.90;;;;;;;21.90;77.02;100986.76;180399;1262;43568;-69
2024/04/13 12:43:07;;;;;;;3.50;2.90;;;;;;;22.02;76.03;100981.90;180255;1263;58860;-69
2024/04/13 12:47:14;;;;;;;7.40;2.70;;;;;;;22.22;71.82;100972.86;180255;1263;46117;-69
2024/04/13 12:51:18;;;;;;;5.70;2.60;;;;;;;22.21;72.36;100968.63;180285;1262;43783;-69
2024/04/13 12:55:22;;;;;;;5.40;2.10;;;;;;;22.12;71.83;100966.05;180289;1265;43791;-69
2024/04/13 12:59:53;;;;;;;2.40;1.90;;;;;;;22.05;72.24;100955.60;180556;1262;44637;-70
2024/04/13 13:04:20;;;;;;;8.90;2.60;;;;;;;22.28;74.02;100949.52;180333;1262;58564;-70
2024/04/13 13:08:24;;;;;;;2.80;2.40;;;;;;;22.38;68.13;100937.48;180327;1262;46039;-70
2024/04/13 13:12:27;;;;;;;35.60;5.70;;;;;;;22.32;67.80;100945.64;180332;1263;43803;-70
2024/04/13 13:16:33;;;;;;;4.30;2.00;;;;;;;22.18;69.54;100940.66;180295;1263;43542;-69
2024/04/13 13:20:36;;;;;;;3.30;1.80;;;;;;;22.10;66.65;100939.38;180239;1262;46025;-69
2024/04/13 13:24:39;;;;;;;7.00;2.70;;;;;;;22.24;66.90;100933.02;180089;1262;58248;-69
2024/04/13 13:28:42;;;;;;;2.30;1.80;;;;;;;22.33;66.34;100927.77;180140;1262;45954;-69
2024/04/13 13:32:45;;;;;;;8.30;2.00;;;;;;;22.29;67.10;100924.89;180355;1264;46024;-69
2024/04/13 13:36:49;;;;;;;5.10;2.30;;;;;;;22.20;68.61;100926.52;180353;1262;45408;-70
2024/04/13 13:40:52;;;;;;;3.90;2.70;;;;;;;22.20;68.65;100917.10;180307;1262;46385;-70
2024/04/13 13:44:56;;;;;;;3.10;2.20;;;;;;;22.14;71.60;100917.40;180341;1265;58947;-71
2024/04/13 13:49:00;;;;;;;2.20;1.60;;;;;;;22.12;70.85;100908.08;180375;1263;44917;-70
2024/04/13 13:53:04;;;;;;;8.90;2.40;;;;;;;22.21;69.24;100897.85;180247;1262;44692;-69
2024/04/13 13:57:07;;;;;;;3.10;1.80;;;;;;;22.16;69.87;100900.09;180128;1261;43768;-70
2024/04/13 14:01:11;;;;;;;4.20;2.00;;;;;;;22.01;70.81;100894.96;180221;1263;43760;-69
2024/04/13 14:05:43;;;;;;;3.50;1.70;;;;;;;21.90;70.37;100883.64;180299;1263;59543;-69
2024/04/13 14:09:49;;;;;;;3.00;1.80;;;;;;;21.84;69.75;100877.92;180341;1262;45967;-69
2024/04/13 14:13:52;;;;;;;4.70;2.60;;;;;;;21.89;72.88;100870.42;180321;1262;43792;-69
2024/04/13 14:17:56;;;;;;;2.20;1.70;;;;;;;21.89;72.74;100869.38;180331;1260;44482;-69
2024/04/13 14:22:28;;;;;;;2.80;1.90;;;;;;;22.01;72.47;100864.45;180355;1262;43579;-70
2024/04/13 14:26:31;;;;;;;4.30;1.40;;;;;;;22.13;71.71;100848.90;180432;1262;57919;-70
2024/04/13 14:30:34;;;;;;;4.80;1.90;;;;;;;22.30;70.64;100847.20;180281;1263;43881;-69
2024/04/13 14:34:37;;;;;;;1.60;1.20;;;;;;;22.41;70.47;100853.16;180157;1262;43665;-70
2024/04/13 14:38:40;;;;;;;2.40;1.20;;;;;;;22.40;68.79;100850.73;180184;1264;44254;-69
2024/04/13 14:42:43;;;;;;;2.80;1.50;;;;;;;22.35;69.27;100847.73;180208;1262;45976;-69
2024/04/13 14:46:48;;;;;;;3.30;1.60;;;;;;;22.37;71.40;100848.90;179966;1267;58959;-69
2024/04/13 14:50:53;;;;;;;2.30;1.50;;;;;;;22.36;68.67;100848.89;180055;1263;43510;-69
2024/04/13 14:54:56;;;;;;;4.30;1.50;;;;;;;22.29;70.45;100837.94;180179;1263;43512;-70
2024/04/13 14:59:01;;;;;;;2.40;0.70;;;;;;;22.22;69.77;100837.55;180187;1263;43969;-69
2024/04/13 15:03:05;;;;;;;2.30;1.50;;;;;;;22.17;72.43;100838.86;180080;1264;43552;-69
2024/04/13 15:07:09;;;;;;;1.90;1.30;;;;;;;22.10;71.47;100834.45;180267;1263;58698;-70
2024/04/13 15:11:12;;;;;;;0.80;0.60;;;;;;;22.07;69.66;100829.29;180010;1263;44622;-70
2024/04/13 15:15:17;;;;;;;1.80;1.10;;;;;;;21.96;69.17;100831.52;180231;1262;44725;-70
2024/04/13 15:19:37;;;;;;;2.90;0.90;;;;;;;21.84;68.74;100825.02;180308;1263;45975;-71
2024/04/13 15:23:40;;;;;;;1.60;1.00;;;;;;;21.70;67.62;100823.76;180130;1262;43663;-69
2024/04/13 15:27:43;;;;;;;2.00;1.10;;;;;;;21.64;67.95;100820.48;180223;1264;58590;-70
2024/04/13 15:31:48;;;;;;;1.40;0.80;;;;;;;21.57;70.22;100819.75;180069;1262;44650;-69
2024/04/13 15:35:52;;;;;;;2.10;1.70;;;;;;;21.54;69.30;100811.70;180237;1264;43636;-69
2024/04/13 15:40:01;;;;;;;1.60;1.00;;;;;;;21.54;69.98;100813.38;180332;1263;43983;-69
2024/04/13 15:44:04;;;;;;;2.80;0.90;;;;;;;21.54;71.82;100815.70;180274;1262;43463;-69
2024/04/13 15:48:07;;;;;;;1.10;0.80;;;;;;;21.51;74.25;100814.41;180059;1262;57410;-69
2024/04/13 15:52:10;;;;;;;1.90;0.90;;;;;;;21.45;74.18;100812.80;180208;1262;46147;-69
2024/04/13 15:56:13;;;;;;;2.30;0.90;;;;;;;21.45;74.08;100811.66;180395;1263;45119;-70
2024/04/13 16:00:48;;;;;;;2.70;1.00;;;;;;;21.45;74.75;100806.74;180217;1262;45963;-70
2024/04/13 16:04:53;;;;;;;2.00;1.60;;;;;;;21.36;74.71;100804.66;180171;1262;45068;-69
2024/04/13 16:08:59;;;;;;;3.80;1.60;;;;;;;21.25;74.74;100798.98;180343;1262;57622;-69
2024/04/13 16:13:03;;;;;;;1.40;1.10;;;;;;;21.15;74.80;100798.00;180296;1262;43799;-69
2024/04/13 16:17:06;;;;;;;3.10;1.10;;;;;;;21.05;74.96;100801.61;180248;1264;43956;-69
2024/04/13 16:21:11;;;;;;;1.70;0.90;;;;;;;20.94;75.84;100801.23;180055;1263;44550;-69
2024/04/13 16:25:16;;;;;;;3.70;1.30;;;;;;;20.81;77.36;100791.55;180329;1262;45963;-69
2024/04/13 16:29:19;;;;;;;2.90;1.10;;;;;;;20.67;77.91;100783.92;180328;1263;58430;-69
2024/04/13 16:33:22;;;;;;;5.70;1.70;;;;;;;20.57;78.10;100787.21;180382;1262;44800;-69
2024/04/13 16:37:29;;;;;;;3.80;1.50;;;;;;;20.45;78.91;100785.44;180415;1262;45072;-69
2024/04/13 16:41:33;;;;;;;2.70;1.10;;;;;;;20.36;81.39;100784.27;180159;1262;43972;-69
2024/04/13 16:45:37;;;;;;;3.20;1.40;;;;;;;20.18;80.23;100775.30;180441;1262;43745;-69
2024/04/13 16:49:40;;;;;;;18.40;2.10;;;;;;;20.07;79.82;100776.20;180280;1261;57428;-69
2024/04/13 16:53:43;;;;;;;2.10;1.20;;;;;;;19.95;79.63;100762.45;180352;1262;43773;-70
2024/04/13 16:57:47;;;;;;;4.60;1.70;;;;;;;19.85;78.20;100758.38;180252;1261;44999;-69
2024/04/13 17:01:51;;;;;;;3.00;0.90;;;;;;;19.77;78.33;100756.19;180412;1262;43890;-70
2024/04/13 17:05:54;;;;;;;2.40;1.20;;;;;;;19.70;78.63;100758.79;180227;1263;44733;-69
2024/04/13 17:09:57;;;;;;;4.10;1.80;;;;;;;19.60;79.44;100756.52;180030;1262;58975;-69
2024/04/13 17:14:01;;;;;;;11.70;1.70;;;;;;;19.47;81.33;100747.90;179860;1265;43761;-70
2024/04/13 17:18:04;;;;;;;3.70;1.40;;;;;;;19.33;81.97;100748.42;180043;1262;44907;-70
2024/04/13 17:22:13;;;;;;;3.50;1.70;;;;;;;19.26;82.33;100749.50;180359;1262;43662;-70
2024/04/13 17:26:16;;;;;;;16.50;2.80;;;;;;;19.18;82.99;100753.77;180302;1262;44696;-69
2024/04/13 17:30:20;;;;;;;2.90;1.30;;;;;;;18.96;82.33;100753.70;180316;1261;59867;-69
2024/04/13 17:34:23;;;;;;;7.00;1.70;;;;;;;18.78;82.47;100747.58;180072;1261;46381;-69
2024/04/13 17:38:26;;;;;;;5.00;1.50;;;;;;;18.68;83.34;100748.24;180149;1262;44645;-69
2024/04/13 17:42:55;;;;;;;3.70;1.50;;;;;;;18.59;83.60;100749.42;180130;1262;46103;-69
2024/04/13 17:47:01;;;;;;;2.50;1.80;;;;;;;18.51;83.23;100751.34;180334;1261;43494;-69
2024/04/13 17:51:07;;;;;;;3.70;3.10;;;;;;;18.42;84.06;100753.95;180092;1262;58472;-69
2024/04/13 17:55:17;;;;;;;7.40;3.20;;;;;;;18.31;84.50;100748.98;180193;1262;46124;-70
2024/04/13 17:59:20;;;;;;;25.10;5.90;;;;;;;18.24;85.34;100744.14;180154;1263;46003;-69
2024/04/13 18:03:31;;;;;;;12.10;3.10;;;;;;;18.16;85.44;100738.95;180008;1262;43658;-69
2024/04/13 18:07:35;;;;;;;9.30;4.30;;;;;;;18.09;85.50;100729.22;180242;1261;43509;-69
2024/04/13 18:11:38;;;;;;;20.00;4.30;;;;;;;18.05;85.18;100734.39;180059;1262;57576;-70
2024/04/13 18:15:42;;;;;;;9.70;3.00;;;;;;;18.01;85.22;100731.13;180234;1261;46048;-69
2024/04/13 18:20:11;;;;;;;11.80;3.30;;;;;;;17.95;85.65;100726.55;180272;1262;43817;-69
2024/04/13 18:24:17;;;;;;;8.40;3.60;;;;;;;17.88;86.01;100722.46;180202;1262;45929;-70
2024/04/13 18:29:12;;;;;;;15.20;9.80;;;;;;;17.74;87.57;100722.08;180329;1262;43504;-69
2024/04/13 18:33:18;;;;;;;13.40;9.50;;;;;;;17.58;87.77;100728.79;180290;1262;58402;-69
2024/04/13 18:37:21;;;;;;;9.20;6.80;;;;;;;17.53;87.97;100735.04;180258;1262;43781;-69
2024/04/13 18:41:24;;;;;;;11.70;7.10;;;;;;;17.48;87.77;100732.76;180076;1263;43630;-69
2024/04/13 18:45:27;;;;;;;8.20;6.80;;;;;;;17.47;86.80;100733.65;180024;1261;46135;-70
2024/04/13 18:49:30;;;;;;;6.70;5.50;;;;;;;17.47;86.32;100732.78;180161;1262;43748;-70
2024/04/13 18:53:33;;;;;;;8.60;5.80;;;;;;;17.44;85.69;100724.53;180076;1261;59063;-69
2024/04/13 18:57:36;;;;;;;37.00;8.60;;;;;;;17.40;85.52;100717.77;180014;1261;43782;-68
2024/04/13 19:01:39;;;;;;;13.80;5.30;;;;;;;17.35;85.45;100718.63;180107;1261;43877;-70
2024/04/13 19:05:42;;;;;;;12.70;5.80;;;;;;;17.32;85.38;100718.25;180034;1261;44718;-70
2024/04/13 19:09:47;;;;;;;7.40;5.40;;;;;;;17.23;85.48;100711.21;179712;1261;44757;-69
2024/04/13 19:13:52;;;;;;;15.10;6.40;;;;;;;17.12;85.89;100705.70;179917;1262;59755;-69
2024/04/13 19:17:55;;;;;;;15.20;5.90;;;;;;;17.04;85.98;100700.48;180140;1262;45058;-69
2024/04/13 19:21:59;;;;;;;11.60;9.40;;;;;;;16.96;86.15;100690.33;180151;1262;44242;-69
2024/04/13 19:26:03;;;;;;;16.00;12.70;;;;;;;16.91;86.46;100686.34;180144;1261;43722;-69
2024/04/13 19:30:10;;;;;;;17.20;12.40;;;;;;;16.87;86.73;100686.56;180023;1262;43621;-70
2024/04/13 19:34:15;;;;;;;16.50;10.90;;;;;;;16.84;86.67;100679.70;179971;1262;58745;-71